createdAt,value
2014-07-24T00:00:05.583Z,99759
2014-07-24T00:00:23.804Z,99753
2014-07-24T00:00:42.023Z,99753
2014-07-24T00:01:00.226Z,99747
2014-07-24T00:01:18.462Z,99750
2014-07-24T00:01:36.650Z,99750
2014-07-24T00:01:54.869Z,99753
2014-07-24T00:02:13.103Z,99744
2014-07-24T00:02:31.339Z,99750
2014-07-24T00:02:49.558Z,99753
2014-07-24T00:03:07.761Z,99762
2014-07-24T00:03:25.982Z,99750
2014-07-24T00:03:44.216Z,99750
2014-07-24T00:04:02.419Z,99753
2014-07-24T00:04:20.639Z,99744
2014-07-24T00:04:38.858Z,99750
2014-07-24T00:04:57.092Z,99744
2014-07-24T00:05:15.311Z,99756
2014-07-24T00:05:33.532Z,99744
2014-07-24T00:05:51.751Z,99747
2014-07-24T00:06:10.001Z,99753
2014-07-24T00:06:28.206Z,99744
2014-07-24T00:06:46.440Z,99747
2014-07-24T00:07:04.643Z,99750
2014-07-24T00:07:22.878Z,99756
2014-07-24T00:07:41.099Z,99744
2014-07-24T00:07:59.318Z,99750
2014-07-24T00:08:32.444Z,99747
2014-07-24T00:08:50.663Z,99741
2014-07-24T00:09:08.897Z,99738
2014-07-24T00:09:27.132Z,99747
2014-07-24T00:09:45.338Z,99735
2014-07-24T00:10:03.556Z,99747
2014-07-24T00:10:21.775Z,99741
2014-07-24T00:10:40.011Z,99747
2014-07-24T00:10:58.214Z,99741
2014-07-24T00:11:16.448Z,99735
2014-07-24T00:11:34.669Z,99750
2014-07-24T00:11:52.888Z,99738
2014-07-24T00:12:11.091Z,99741
2014-07-24T00:12:29.309Z,99741
2014-07-24T00:12:47.547Z,99735
2014-07-24T00:13:05.781Z,99732
2014-07-24T00:13:23.984Z,99753
2014-07-24T00:13:42.204Z,99732
2014-07-24T00:14:00.438Z,99738
2014-07-24T00:14:18.657Z,99744
2014-07-24T00:14:36.847Z,99730
2014-07-24T00:14:55.097Z,99732
2014-07-24T00:15:13.300Z,99738
2014-07-24T00:15:31.503Z,99732
2014-07-24T00:15:49.724Z,99730
2014-07-24T00:16:22.130Z,99735
2014-07-24T00:16:40.351Z,99732
2014-07-24T00:16:58.569Z,99732
2014-07-24T00:17:16.773Z,99735
2014-07-24T00:17:35.007Z,99738
2014-07-24T00:17:53.228Z,99732
2014-07-24T00:18:11.446Z,99727
2014-07-24T00:18:29.665Z,99732
2014-07-24T00:18:47.886Z,99721
2014-07-24T00:19:06.120Z,99735
2014-07-24T00:19:24.323Z,99738
2014-07-24T00:19:42.544Z,99732
2014-07-24T00:20:00.794Z,99732
2014-07-24T00:20:18.997Z,99738
2014-07-24T00:20:37.232Z,99730
2014-07-24T00:20:55.467Z,99718
2014-07-24T00:21:13.670Z,99730
2014-07-24T00:21:31.889Z,99724
2014-07-24T00:21:50.126Z,99724
2014-07-24T00:22:08.361Z,99727
2014-07-24T00:22:26.579Z,99727
2014-07-24T00:22:44.800Z,99721
2014-07-24T00:23:03.003Z,99727
2014-07-24T00:23:21.222Z,99733
2014-07-24T00:23:39.456Z,99724
2014-07-24T00:23:57.708Z,99724
2014-07-24T00:24:15.943Z,99730
2014-07-24T00:24:34.130Z,99718
2014-07-24T00:24:52.367Z,99727
2014-07-24T00:25:10.601Z,99727
2014-07-24T00:25:28.820Z,99724
2014-07-24T00:25:47.024Z,99718
2014-07-24T00:26:19.399Z,99718
2014-07-24T00:26:37.649Z,99721
2014-07-24T00:26:55.855Z,99733
2014-07-24T00:27:14.074Z,99727
2014-07-24T00:27:32.277Z,99733
2014-07-24T00:27:50.496Z,99727
2014-07-24T00:28:08.731Z,99715
2014-07-24T00:28:26.934Z,99724
2014-07-24T00:28:45.184Z,99715
2014-07-24T00:29:03.405Z,99733
2014-07-24T00:29:21.608Z,99738
2014-07-24T00:29:39.811Z,99724
2014-07-24T00:29:58.030Z,99730
2014-07-24T00:30:16.283Z,99721
2014-07-24T00:30:34.502Z,99721
2014-07-24T00:30:52.705Z,99727
2014-07-24T00:31:10.957Z,99733
2014-07-24T00:31:29.207Z,99724
2014-07-24T00:31:47.410Z,99715
2014-07-24T00:32:05.629Z,99718
2014-07-24T00:32:23.865Z,99712
2014-07-24T00:32:42.099Z,99724
2014-07-24T00:33:32.742Z,99721
2014-07-24T00:33:50.945Z,99721
2014-07-24T00:34:09.164Z,99721
2014-07-24T00:34:27.416Z,99709
2014-07-24T00:34:45.619Z,99715
2014-07-24T00:35:03.869Z,99715
2014-07-24T00:35:22.090Z,99718
2014-07-24T00:35:40.309Z,99727
2014-07-24T00:35:58.512Z,99727
2014-07-24T00:36:16.748Z,99718
2014-07-24T00:36:34.998Z,99709
2014-07-24T00:36:53.201Z,99715
2014-07-24T00:37:11.420Z,99703
2014-07-24T00:37:29.641Z,99715
2014-07-24T00:37:47.875Z,99709
2014-07-24T00:38:06.094Z,99724
2014-07-24T00:38:24.299Z,99721
2014-07-24T00:38:42.518Z,99709
2014-07-24T00:39:00.752Z,99706
2014-07-24T00:39:18.957Z,99715
2014-07-24T00:39:37.176Z,99698
2014-07-24T00:39:55.410Z,99703
2014-07-24T00:40:13.629Z,99703
2014-07-24T00:40:31.834Z,99718
2014-07-24T00:40:50.053Z,99712
2014-07-24T00:41:08.272Z,99718
2014-07-24T00:41:26.508Z,99718
2014-07-24T00:41:44.711Z,99727
2014-07-24T00:42:17.088Z,99721
2014-07-24T00:42:35.307Z,99703
2014-07-24T00:42:53.557Z,99698
2014-07-24T00:43:11.776Z,99703
2014-07-24T00:43:29.980Z,99727
2014-07-24T00:43:48.199Z,99721
2014-07-24T00:44:06.433Z,99718
2014-07-24T00:44:24.654Z,99709
2014-07-24T00:44:42.857Z,99715
2014-07-24T00:45:01.060Z,99712
2014-07-24T00:45:19.294Z,99721
2014-07-24T00:45:37.515Z,99721
2014-07-24T00:45:55.734Z,99712
2014-07-24T00:46:13.953Z,99727
2014-07-24T00:46:32.189Z,99718
2014-07-24T00:46:50.408Z,99718
2014-07-24T00:47:08.658Z,99715
2014-07-24T00:47:26.876Z,99718
2014-07-24T00:47:45.129Z,99712
2014-07-24T00:48:03.348Z,99715
2014-07-24T00:48:21.567Z,99721
2014-07-24T00:48:39.788Z,99724
2014-07-24T00:48:57.991Z,99709
2014-07-24T00:49:16.210Z,99715
2014-07-24T00:49:34.444Z,99715
2014-07-24T00:49:52.664Z,99698
2014-07-24T00:50:10.867Z,99715
2014-07-24T00:50:29.101Z,99703
2014-07-24T00:50:47.291Z,99715
2014-07-24T00:51:05.541Z,99698
2014-07-24T00:51:23.744Z,99712
2014-07-24T00:51:41.963Z,99706
2014-07-24T00:52:00.183Z,99709
2014-07-24T00:52:18.418Z,99700
2014-07-24T00:52:36.636Z,99709
2014-07-24T00:52:54.858Z,99721
2014-07-24T00:53:13.061Z,99715
2014-07-24T00:53:31.280Z,99709
2014-07-24T00:53:49.499Z,99715
2014-07-24T00:54:07.720Z,99703
2014-07-24T00:54:25.938Z,99703
2014-07-24T00:54:44.173Z,99709
2014-07-24T00:55:16.534Z,99703
2014-07-24T00:55:34.768Z,99709
2014-07-24T00:55:53.003Z,99709
2014-07-24T00:56:11.239Z,99703
2014-07-24T00:56:29.458Z,99703
2014-07-24T00:57:01.817Z,99706
2014-07-24T00:57:20.069Z,99721
2014-07-24T00:57:38.288Z,99706
2014-07-24T00:57:56.507Z,99709
2014-07-24T00:58:14.727Z,99715
2014-07-24T00:58:32.945Z,99712
2014-07-24T00:58:51.180Z,99706
2014-07-24T00:59:09.400Z,99698
2014-07-24T00:59:27.604Z,99706
2014-07-24T00:59:45.822Z,99703
2014-07-24T01:00:04.041Z,99703
2014-07-24T01:00:22.263Z,99709
2014-07-24T01:00:40.513Z,99709
2014-07-24T01:00:58.716Z,99703
2014-07-24T01:01:16.951Z,99712
2014-07-24T01:01:35.170Z,99709
2014-07-24T01:01:53.373Z,99709
2014-07-24T01:02:11.578Z,99715
2014-07-24T01:02:29.828Z,99709
2014-07-24T01:02:48.016Z,99700
2014-07-24T01:03:06.266Z,99706
2014-07-24T01:03:24.472Z,99709
2014-07-24T01:03:42.691Z,99706
2014-07-24T01:04:00.925Z,99698
2014-07-24T01:04:19.129Z,99698
2014-07-24T01:04:37.348Z,99698
2014-07-24T01:04:55.567Z,99703
2014-07-24T01:05:13.788Z,99689
2014-07-24T01:05:32.038Z,99712
2014-07-24T01:05:50.257Z,99703
2014-07-24T01:06:08.476Z,99700
2014-07-24T01:06:26.680Z,99712
2014-07-24T01:06:44.930Z,99703
2014-07-24T01:07:03.118Z,99703
2014-07-24T01:07:21.354Z,99715
2014-07-24T01:07:39.588Z,99700
2014-07-24T01:07:57.791Z,99698
2014-07-24T01:08:30.168Z,99698
2014-07-24T01:08:48.372Z,99706
2014-07-24T01:09:06.606Z,99698
2014-07-24T01:09:24.843Z,99698
2014-07-24T01:09:43.062Z,99698
2014-07-24T01:10:01.265Z,99703
2014-07-24T01:10:19.485Z,99706
2014-07-24T01:10:37.719Z,99698
2014-07-24T01:10:56.032Z,99703
2014-07-24T01:11:14.235Z,99703
2014-07-24T01:11:32.456Z,99712
2014-07-24T01:11:50.674Z,99703
2014-07-24T01:12:08.909Z,99703
2014-07-24T01:12:27.114Z,99703
2014-07-24T01:12:45.364Z,99712
2014-07-24T01:13:03.583Z,99695
2014-07-24T01:13:21.803Z,99709
2014-07-24T01:13:40.007Z,99712
2014-07-24T01:13:58.225Z,99700
2014-07-24T01:14:16.462Z,99701
2014-07-24T01:14:34.680Z,99706
2014-07-24T01:14:52.884Z,99703
2014-07-24T01:15:11.102Z,99701
2014-07-24T01:15:29.339Z,99703
2014-07-24T01:15:47.573Z,99709
2014-07-24T01:16:05.761Z,99703
2014-07-24T01:16:23.981Z,99695
2014-07-24T01:16:42.184Z,99706
2014-07-24T01:17:00.419Z,99712
2014-07-24T01:17:18.640Z,99698
2014-07-24T01:17:36.874Z,99692
2014-07-24T01:17:55.093Z,99703
2014-07-24T01:18:13.311Z,99695
2014-07-24T01:18:31.517Z,99698
2014-07-24T01:18:49.735Z,99700
2014-07-24T01:19:07.985Z,99692
2014-07-24T01:19:26.206Z,99703
2014-07-24T01:19:44.394Z,99701
2014-07-24T01:20:02.612Z,99695
2014-07-24T01:20:20.957Z,99698
2014-07-24T01:20:39.191Z,99706
2014-07-24T01:20:57.410Z,99698
2014-07-24T01:21:15.645Z,99701
2014-07-24T01:21:33.882Z,99692
2014-07-24T01:21:52.101Z,99709
2014-07-24T01:22:10.304Z,99701
2014-07-24T01:22:28.508Z,99695
2014-07-24T01:22:46.727Z,99706
2014-07-24T01:23:04.945Z,99695
2014-07-24T01:23:23.197Z,99701
2014-07-24T01:23:41.401Z,99689
2014-07-24T01:23:59.635Z,99695
2014-07-24T01:24:17.854Z,99686
2014-07-24T01:24:36.059Z,99692
2014-07-24T01:24:54.387Z,99689
2014-07-24T01:25:12.606Z,99692
2014-07-24T01:25:30.842Z,99695
2014-07-24T01:25:49.061Z,99692
2014-07-24T01:26:07.280Z,99695
2014-07-24T01:26:25.500Z,99689
2014-07-24T01:26:43.703Z,99689
2014-07-24T01:27:01.938Z,99689
2014-07-24T01:27:20.157Z,99692
2014-07-24T01:27:38.362Z,99692
2014-07-24T01:27:56.596Z,99686
2014-07-24T01:28:14.799Z,99686
2014-07-24T01:28:33.019Z,99692
2014-07-24T01:28:51.253Z,99703
2014-07-24T01:29:09.472Z,99701
2014-07-24T01:29:27.709Z,99692
2014-07-24T01:29:45.928Z,99692
2014-07-24T01:30:04.178Z,99692
2014-07-24T01:30:22.366Z,99695
2014-07-24T01:30:40.602Z,99686
2014-07-24T01:30:58.836Z,99692
2014-07-24T01:31:17.149Z,99692
2014-07-24T01:31:35.370Z,99692
2014-07-24T01:31:53.588Z,99689
2014-07-24T01:32:11.823Z,99686
2014-07-24T01:32:30.027Z,99689
2014-07-24T01:32:48.261Z,99689
2014-07-24T01:33:06.496Z,99689
2014-07-24T01:33:24.714Z,99692
2014-07-24T01:33:42.936Z,99692
2014-07-24T01:34:01.139Z,99689
2014-07-24T01:34:19.374Z,99692
2014-07-24T01:34:37.688Z,99686
2014-07-24T01:34:55.907Z,99695
2014-07-24T01:35:14.126Z,99686
2014-07-24T01:35:32.361Z,99692
2014-07-24T01:35:50.580Z,99689
2014-07-24T01:36:08.767Z,99683
2014-07-24T01:36:26.986Z,99680
2014-07-24T01:36:45.238Z,99680
2014-07-24T01:37:03.441Z,99686
2014-07-24T01:37:21.644Z,99683
2014-07-24T01:37:39.882Z,99689
2014-07-24T01:37:58.085Z,99677
2014-07-24T01:38:16.335Z,99683
2014-07-24T01:38:34.555Z,99680
2014-07-24T01:38:52.773Z,99680
2014-07-24T01:39:10.992Z,99683
2014-07-24T01:39:29.195Z,99680
2014-07-24T01:39:47.416Z,99680
2014-07-24T01:40:05.650Z,99680
2014-07-24T01:40:23.838Z,99683
2014-07-24T01:40:42.090Z,99680
2014-07-24T01:41:00.277Z,99686
2014-07-24T01:41:18.527Z,99680
2014-07-24T01:41:36.732Z,99674
2014-07-24T01:41:54.951Z,99680
2014-07-24T01:42:13.170Z,99677
2014-07-24T01:42:31.404Z,99683
2014-07-24T01:42:49.609Z,99674
2014-07-24T01:43:07.828Z,99683
2014-07-24T01:43:26.109Z,99677
2014-07-24T01:43:44.315Z,99680
2014-07-24T01:44:02.533Z,99683
2014-07-24T01:44:20.752Z,99683
2014-07-24T01:44:38.988Z,99680
2014-07-24T01:44:57.223Z,99680
2014-07-24T01:45:15.426Z,99683
2014-07-24T01:45:33.645Z,99686
2014-07-24T01:45:51.865Z,99680
2014-07-24T01:46:10.069Z,99686
2014-07-24T01:46:28.287Z,99674
2014-07-24T01:46:46.524Z,99683
2014-07-24T01:47:04.742Z,99674
2014-07-24T01:47:22.961Z,99677
2014-07-24T01:47:41.166Z,99669
2014-07-24T01:47:59.448Z,99669
2014-07-24T01:48:17.682Z,99680
2014-07-24T01:48:35.901Z,99677
2014-07-24T01:48:54.106Z,99674
2014-07-24T01:49:12.340Z,99674
2014-07-24T01:49:30.543Z,99669
2014-07-24T01:49:48.764Z,99671
2014-07-24T01:50:06.983Z,99671
2014-07-24T01:50:25.202Z,99660
2014-07-24T01:50:43.437Z,99669
2014-07-24T01:51:01.640Z,99669
2014-07-24T01:51:19.843Z,99671
2014-07-24T01:51:38.062Z,99663
2014-07-24T01:51:56.298Z,99674
2014-07-24T01:52:14.501Z,99660
2014-07-24T01:52:32.736Z,99671
2014-07-24T01:52:50.957Z,99669
2014-07-24T01:53:41.535Z,99674
2014-07-24T01:53:59.755Z,99671
2014-07-24T01:54:17.990Z,99674
2014-07-24T01:54:36.209Z,99669
2014-07-24T01:54:54.398Z,99669
2014-07-24T01:55:12.632Z,99671
2014-07-24T01:55:30.851Z,99666
2014-07-24T01:55:49.054Z,99666
2014-07-24T01:56:07.292Z,99671
2014-07-24T01:56:25.495Z,99674
2014-07-24T01:56:43.729Z,99666
2014-07-24T01:57:01.934Z,99671
2014-07-24T01:57:20.137Z,99671
2014-07-24T01:57:52.544Z,99674
2014-07-24T01:58:10.763Z,99666
2014-07-24T01:58:28.967Z,99663
2014-07-24T01:58:47.185Z,99669
2014-07-24T01:59:05.407Z,99671
2014-07-24T01:59:23.626Z,99666
2014-07-24T01:59:41.860Z,99674
2014-07-24T02:00:00.079Z,99671
2014-07-24T02:00:18.267Z,99663
2014-07-24T02:00:36.502Z,99669
2014-07-24T02:00:54.705Z,99666
2014-07-24T02:01:12.941Z,99669
2014-07-24T02:01:31.144Z,99669
2014-07-24T02:01:49.379Z,99671
2014-07-24T02:02:07.569Z,99666
2014-07-24T02:02:25.804Z,99669
2014-07-24T02:02:44.022Z,99666
2014-07-24T02:03:02.226Z,99666
2014-07-24T02:03:20.461Z,99674
2014-07-24T02:03:38.680Z,99663
2014-07-24T02:03:56.883Z,99671
2014-07-24T02:04:15.105Z,99669
2014-07-24T02:04:33.323Z,99666
2014-07-24T02:04:51.558Z,99669
2014-07-24T02:05:09.777Z,99663
2014-07-24T02:05:28.012Z,99666
2014-07-24T02:05:46.231Z,99669
2014-07-24T02:06:04.465Z,99671
2014-07-24T02:06:22.686Z,99663
2014-07-24T02:06:40.873Z,99660
2014-07-24T02:06:59.108Z,99660
2014-07-24T02:07:17.329Z,99666
2014-07-24T02:07:35.517Z,99671
2014-07-24T02:07:53.751Z,99666
2014-07-24T02:08:11.987Z,99660
2014-07-24T02:08:30.205Z,99654
2014-07-24T02:08:48.393Z,99666
2014-07-24T02:09:06.612Z,99663
2014-07-24T02:09:24.848Z,99657
2014-07-24T02:09:43.067Z,99663
2014-07-24T02:10:01.270Z,99669
2014-07-24T02:10:19.491Z,99663
2014-07-24T02:10:37.709Z,99669
2014-07-24T02:10:55.944Z,99663
2014-07-24T02:11:14.149Z,99663
2014-07-24T02:11:32.368Z,99663
2014-07-24T02:11:50.649Z,99669
2014-07-24T02:12:08.868Z,99669
2014-07-24T02:12:27.073Z,99660
2014-07-24T02:12:45.323Z,99666
2014-07-24T02:13:03.526Z,99669
2014-07-24T02:13:21.761Z,99669
2014-07-24T02:13:39.964Z,99674
2014-07-24T02:13:58.199Z,99674
2014-07-24T02:14:30.592Z,99669
2014-07-24T02:14:48.811Z,99663
2014-07-24T02:15:07.045Z,99666
2014-07-24T02:15:25.251Z,99663
2014-07-24T02:15:43.469Z,99663
2014-07-24T02:16:01.704Z,99669
2014-07-24T02:16:19.923Z,99663
2014-07-24T02:16:38.142Z,99666
2014-07-24T02:16:56.345Z,99666
2014-07-24T02:17:14.564Z,99663
2014-07-24T02:17:32.785Z,99663
2014-07-24T02:17:51.004Z,99657
2014-07-24T02:18:09.222Z,99657
2014-07-24T02:18:27.459Z,99657
2014-07-24T02:18:45.677Z,99657
2014-07-24T02:19:03.896Z,99654
2014-07-24T02:19:22.099Z,99663
2014-07-24T02:19:40.352Z,99657
2014-07-24T02:19:58.571Z,99651
2014-07-24T02:20:16.868Z,99671
2014-07-24T02:20:49.245Z,99657
2014-07-24T02:21:07.479Z,99660
2014-07-24T02:21:25.714Z,99657
2014-07-24T02:21:43.934Z,99657
2014-07-24T02:22:02.138Z,99657
2014-07-24T02:22:20.356Z,99654
2014-07-24T02:22:52.733Z,99660
2014-07-24T02:23:10.968Z,99646
2014-07-24T02:23:29.186Z,99651
2014-07-24T02:23:47.407Z,99651
2014-07-24T02:24:05.626Z,99651
2014-07-24T02:24:23.845Z,99654
2014-07-24T02:24:42.081Z,99651
2014-07-24T02:25:14.456Z,99646
2014-07-24T02:25:32.659Z,99651
2014-07-24T02:25:50.880Z,99654
2014-07-24T02:26:09.146Z,99651
2014-07-24T02:26:27.364Z,99648
2014-07-24T02:26:45.616Z,99651
2014-07-24T02:27:03.835Z,99648
2014-07-24T02:27:22.038Z,99648
2014-07-24T02:27:40.273Z,99651
2014-07-24T02:27:58.509Z,99651
2014-07-24T02:28:16.728Z,99648
2014-07-24T02:28:34.962Z,99654
2014-07-24T02:28:53.166Z,99643
2014-07-24T02:29:11.401Z,99657
2014-07-24T02:29:29.604Z,99657
2014-07-24T02:29:47.824Z,99646
2014-07-24T02:30:06.028Z,99648
2014-07-24T02:30:24.278Z,99648
2014-07-24T02:30:42.496Z,99648
2014-07-24T02:31:00.702Z,99657
2014-07-24T02:31:18.921Z,99654
2014-07-24T02:31:37.156Z,99643
2014-07-24T02:31:55.375Z,99648
2014-07-24T02:32:13.578Z,99648
2014-07-24T02:32:31.813Z,99646
2014-07-24T02:32:50.016Z,99648
2014-07-24T02:33:08.253Z,99648
2014-07-24T02:33:26.472Z,99654
2014-07-24T02:33:44.691Z,99646
2014-07-24T02:34:02.927Z,99640
2014-07-24T02:34:21.146Z,99646
2014-07-24T02:35:11.820Z,99651
2014-07-24T02:35:30.132Z,99657
2014-07-24T02:35:48.367Z,99651
2014-07-24T02:36:06.587Z,99654
2014-07-24T02:36:24.806Z,99646
2014-07-24T02:36:43.009Z,99648
2014-07-24T02:37:01.260Z,99657
2014-07-24T02:37:19.557Z,99663
2014-07-24T02:37:37.760Z,99651
2014-07-24T02:37:55.995Z,99651
2014-07-24T02:38:14.215Z,99651
2014-07-24T02:39:04.828Z,99654
2014-07-24T02:39:23.031Z,99654
2014-07-24T02:39:41.250Z,99657
2014-07-24T02:39:59.468Z,99651
2014-07-24T02:40:17.719Z,99651
2014-07-24T02:40:35.923Z,99648
2014-07-24T02:40:54.157Z,99654
2014-07-24T02:41:12.379Z,99657
2014-07-24T02:41:30.597Z,99651
2014-07-24T02:41:48.832Z,99663
2014-07-24T02:42:07.052Z,99663
2014-07-24T02:42:25.270Z,99660
2014-07-24T02:42:43.489Z,99651
2014-07-24T02:43:01.723Z,99657
2014-07-24T02:43:19.944Z,99651
2014-07-24T02:43:38.179Z,99657
2014-07-24T02:43:56.366Z,99669
2014-07-24T02:44:14.602Z,99669
2014-07-24T02:44:32.806Z,99663
2014-07-24T02:44:51.102Z,99654
2014-07-24T02:45:09.308Z,99651
2014-07-24T02:45:27.542Z,99660
2014-07-24T02:45:45.761Z,99669
2014-07-24T02:46:03.964Z,99657
2014-07-24T02:46:22.185Z,99666
2014-07-24T02:46:40.419Z,99666
2014-07-24T02:46:58.622Z,99666
2014-07-24T02:47:16.843Z,99666
2014-07-24T02:47:35.062Z,99660
2014-07-24T02:47:53.265Z,99651
2014-07-24T02:48:11.564Z,99657
2014-07-24T02:48:29.782Z,99646
2014-07-24T02:48:47.985Z,99654
2014-07-24T02:49:06.220Z,99654
2014-07-24T02:49:24.425Z,99646
2014-07-24T02:49:42.644Z,99651
2014-07-24T02:50:00.862Z,99648
2014-07-24T02:50:19.099Z,99648
2014-07-24T02:50:37.318Z,99654
2014-07-24T02:50:55.521Z,99651
2014-07-24T02:51:13.740Z,99651
2014-07-24T02:51:31.959Z,99654
2014-07-24T02:51:50.178Z,99660
2014-07-24T02:52:08.397Z,99663
2014-07-24T02:52:26.602Z,99663
2014-07-24T02:52:58.977Z,99666
2014-07-24T02:53:17.214Z,99660
2014-07-24T02:53:35.449Z,99654
2014-07-24T02:53:53.652Z,99660
2014-07-24T02:54:11.886Z,99660
2014-07-24T02:54:30.106Z,99663
2014-07-24T02:54:48.325Z,99663
2014-07-24T02:55:06.543Z,99660
2014-07-24T02:55:24.749Z,99666
2014-07-24T02:55:42.984Z,99651
2014-07-24T02:56:01.218Z,99663
2014-07-24T02:56:19.408Z,99669
2014-07-24T02:56:37.642Z,99657
2014-07-24T02:56:55.876Z,99669
2014-07-24T02:57:14.080Z,99657
2014-07-24T02:57:32.316Z,99657
2014-07-24T02:57:50.550Z,99657
2014-07-24T02:58:08.769Z,99654
2014-07-24T02:58:26.959Z,99657
2014-07-24T02:58:45.193Z,99657
2014-07-24T02:59:03.427Z,99654
2014-07-24T02:59:21.616Z,99666
2014-07-24T02:59:39.835Z,99663
2014-07-24T02:59:58.085Z,99657
2014-07-24T03:00:16.305Z,99657
2014-07-24T03:00:34.508Z,99657
2014-07-24T03:00:52.727Z,99657
2014-07-24T03:01:10.962Z,99654
2014-07-24T03:01:29.182Z,99657
2014-07-24T03:01:47.401Z,99663
2014-07-24T03:02:05.604Z,99654
2014-07-24T03:02:23.856Z,99663
2014-07-24T03:02:42.075Z,99669
2014-07-24T03:03:00.294Z,99660
2014-07-24T03:03:18.499Z,99660
2014-07-24T03:03:36.733Z,99660
2014-07-24T03:03:54.952Z,99654
2014-07-24T03:04:13.155Z,99663
2014-07-24T03:04:31.407Z,99651
2014-07-24T03:04:49.626Z,99660
2014-07-24T03:05:07.860Z,99660
2014-07-24T03:05:26.081Z,99654
2014-07-24T03:05:44.300Z,99660
2014-07-24T03:06:02.518Z,99660
2014-07-24T03:06:20.753Z,99654
2014-07-24T03:06:38.958Z,99660
2014-07-24T03:06:57.177Z,99663
2014-07-24T03:07:15.380Z,99663
2014-07-24T03:07:33.632Z,99669
2014-07-24T03:07:51.835Z,99648
2014-07-24T03:08:10.069Z,99663
2014-07-24T03:08:28.290Z,99666
2014-07-24T03:08:46.509Z,99646
2014-07-24T03:09:04.712Z,99663
2014-07-24T03:09:22.931Z,99669
2014-07-24T03:09:41.166Z,99660
2014-07-24T03:09:59.385Z,99648
2014-07-24T03:10:17.588Z,99651
2014-07-24T03:10:35.825Z,99654
2014-07-24T03:10:54.044Z,99654
2014-07-24T03:11:12.247Z,99660
2014-07-24T03:11:30.498Z,99651
2014-07-24T03:11:48.686Z,99657
2014-07-24T03:12:06.951Z,99657
2014-07-24T03:12:25.186Z,99660
2014-07-24T03:12:43.392Z,99663
2014-07-24T03:13:01.642Z,99654
2014-07-24T03:13:19.845Z,99660
2014-07-24T03:13:38.080Z,99663
2014-07-24T03:13:56.268Z,99660
2014-07-24T03:14:14.518Z,99651
2014-07-24T03:14:32.739Z,99660
2014-07-24T03:14:50.942Z,99666
2014-07-24T03:15:09.176Z,99666
2014-07-24T03:15:27.395Z,99666
2014-07-24T03:15:45.616Z,99666
2014-07-24T03:16:03.834Z,99663
2014-07-24T03:16:22.053Z,99657
2014-07-24T03:16:40.259Z,99660
2014-07-24T03:16:58.478Z,99666
2014-07-24T03:17:16.728Z,99654
2014-07-24T03:17:34.933Z,99660
2014-07-24T03:17:53.136Z,99669
2014-07-24T03:18:11.371Z,99663
2014-07-24T03:18:29.589Z,99669
2014-07-24T03:18:47.809Z,99657
2014-07-24T03:19:06.012Z,99663
2014-07-24T03:19:24.231Z,99666
2014-07-24T03:19:42.484Z,99666
2014-07-24T03:20:00.703Z,99660
2014-07-24T03:20:18.921Z,99663
2014-07-24T03:20:37.141Z,99660
2014-07-24T03:20:55.360Z,99666
2014-07-24T03:21:13.563Z,99663
2014-07-24T03:21:46.081Z,99654
2014-07-24T03:22:04.284Z,99663
2014-07-24T03:22:22.518Z,99666
2014-07-24T03:22:40.723Z,99669
2014-07-24T03:22:58.926Z,99657
2014-07-24T03:23:17.161Z,99663
2014-07-24T03:23:35.395Z,99663
2014-07-24T03:23:53.616Z,99660
2014-07-24T03:24:11.819Z,99660
2014-07-24T03:24:30.022Z,99657
2014-07-24T03:24:48.274Z,99666
2014-07-24T03:25:06.493Z,99660
2014-07-24T03:25:24.696Z,99663
2014-07-24T03:25:42.917Z,99648
2014-07-24T03:26:01.167Z,99660
2014-07-24T03:26:19.370Z,99660
2014-07-24T03:26:37.604Z,99654
2014-07-24T03:26:55.872Z,99648
2014-07-24T03:27:14.091Z,99654
2014-07-24T03:27:32.325Z,99660
2014-07-24T03:27:50.546Z,99660
2014-07-24T03:28:08.765Z,99663
2014-07-24T03:28:26.999Z,99654
2014-07-24T03:28:45.218Z,99651
2014-07-24T03:29:03.438Z,99663
2014-07-24T03:29:21.657Z,99657
2014-07-24T03:29:39.860Z,99657
2014-07-24T03:30:30.440Z,99660
2014-07-24T03:30:48.675Z,99663
2014-07-24T03:31:06.911Z,99651
2014-07-24T03:31:25.114Z,99660
2014-07-24T03:31:43.333Z,99660
2014-07-24T03:32:01.569Z,99663
2014-07-24T03:32:19.788Z,99657
2014-07-24T03:32:37.991Z,99657
2014-07-24T03:32:56.210Z,99663
2014-07-24T03:33:14.431Z,99660
2014-07-24T03:33:32.650Z,99654
2014-07-24T03:33:50.868Z,99654
2014-07-24T03:34:09.106Z,99660
2014-07-24T03:34:27.324Z,99663
2014-07-24T03:34:45.543Z,99663
2014-07-24T03:35:03.856Z,99657
2014-07-24T03:35:22.075Z,99657
2014-07-24T03:35:40.310Z,99669
2014-07-24T03:35:58.529Z,99660
2014-07-24T03:36:16.781Z,99669
2014-07-24T03:36:35.015Z,99666
2014-07-24T03:36:53.218Z,99654
2014-07-24T03:37:11.454Z,99669
2014-07-24T03:37:29.673Z,99663
2014-07-24T03:37:47.954Z,99663
2014-07-24T03:38:06.158Z,99669
2014-07-24T03:38:24.410Z,99663
2014-07-24T03:38:42.628Z,99675
2014-07-24T03:39:00.847Z,99666
2014-07-24T03:39:19.083Z,99663
2014-07-24T03:39:37.302Z,99660
2014-07-24T03:39:55.505Z,99675
2014-07-24T03:40:13.726Z,99669
2014-07-24T03:40:31.960Z,99666
2014-07-24T03:40:50.195Z,99666
2014-07-24T03:41:08.382Z,99660
2014-07-24T03:41:26.619Z,99660
2014-07-24T03:41:44.853Z,99672
2014-07-24T03:42:03.072Z,99672
2014-07-24T03:42:21.308Z,99663
2014-07-24T03:42:39.496Z,99660
2014-07-24T03:42:57.746Z,99660
2014-07-24T03:43:15.965Z,99672
2014-07-24T03:43:34.169Z,99663
2014-07-24T03:43:52.387Z,99672
2014-07-24T03:44:10.606Z,99666
2014-07-24T03:44:28.843Z,99672
2014-07-24T03:44:47.047Z,99669
2014-07-24T03:45:05.312Z,99663
2014-07-24T03:45:23.533Z,99669
2014-07-24T03:45:41.783Z,99660
2014-07-24T03:45:59.986Z,99675
2014-07-24T03:46:18.207Z,99669
2014-07-24T03:46:36.441Z,99675
2014-07-24T03:46:54.676Z,99666
2014-07-24T03:47:12.879Z,99677
2014-07-24T03:47:31.099Z,99680
2014-07-24T03:47:49.318Z,99672
2014-07-24T03:48:07.553Z,99683
2014-07-24T03:48:25.758Z,99675
2014-07-24T03:48:44.039Z,99686
2014-07-24T03:49:02.273Z,99683
2014-07-24T03:49:20.494Z,99683
2014-07-24T03:49:38.697Z,99680
2014-07-24T03:49:56.916Z,99675
2014-07-24T03:50:30.074Z,99680
2014-07-24T03:50:48.293Z,99675
2014-07-24T03:51:06.512Z,99686
2014-07-24T03:51:39.670Z,99686
2014-07-24T03:51:57.873Z,99672
2014-07-24T03:52:16.108Z,99683
2014-07-24T03:52:34.327Z,99683
2014-07-24T03:53:06.733Z,99680
2014-07-24T03:53:39.095Z,99683
2014-07-24T03:53:57.329Z,99675
2014-07-24T03:54:15.532Z,99686
2014-07-24T03:54:33.808Z,99689
2014-07-24T03:54:52.027Z,99677
2014-07-24T03:55:10.246Z,99680
2014-07-24T03:55:28.540Z,99677
2014-07-24T03:56:00.930Z,99683
2014-07-24T03:56:19.134Z,99680
2014-07-24T03:56:37.413Z,99675
2014-07-24T03:56:55.632Z,99683
2014-07-24T03:57:13.850Z,99675
2014-07-24T03:57:32.114Z,99677
2014-07-24T03:57:50.349Z,99683
2014-07-24T03:58:08.583Z,99677
2014-07-24T03:58:26.770Z,99677
2014-07-24T03:58:59.210Z,99686
2014-07-24T03:59:17.444Z,99683
2014-07-24T03:59:35.648Z,99677
2014-07-24T04:00:26.265Z,99680
2014-07-24T04:00:44.518Z,99683
2014-07-24T04:01:02.736Z,99683
2014-07-24T04:01:20.971Z,99683
2014-07-24T04:01:39.205Z,99677
2014-07-24T04:01:57.410Z,99677
2014-07-24T04:02:15.738Z,99680
2014-07-24T04:02:33.972Z,99677